createdAt,value
2018-04-12T11:04:50.496Z,40.11
2018-04-12T11:07:19.518Z,38.09
2018-04-12T11:09:47.771Z,37.59
2018-04-12T11:12:16.824Z,38.59
2018-04-12T11:14:45.049Z,37.37
2018-04-12T11:17:13.333Z,39.80
2018-04-12T11:19:41.577Z,39.94
2018-04-12T11:22:10.601Z,39.57
2018-04-12T11:24:38.850Z,39.59
2018-04-12T11:27:07.926Z,40.26
2018-04-12T11:29:36.130Z,40.58
2018-04-12T11:32:04.386Z,39.23
2018-04-12T11:34:32.684Z,39.84
2018-04-12T11:37:00.941Z,38.79
2018-04-12T11:39:29.141Z,40.41
2018-04-12T11:41:57.402Z,40.36
2018-04-12T11:44:26.422Z,40.01
2018-04-12T11:46:54.665Z,40.16
2018-04-12T11:49:23.697Z,41.82
2018-04-12T11:51:51.944Z,42.22
2018-04-12T11:54:20.964Z,41.20
2018-04-12T11:56:49.235Z,41.34
2018-04-12T11:59:17.474Z,42.97
2018-04-12T12:01:46.488Z,42.33
2018-04-12T12:04:14.753Z,42.94
2018-04-12T12:06:43.784Z,43.31
2018-04-12T12:09:12.040Z,43.48
2018-04-12T12:11:40.284Z,43.94
2018-04-12T12:14:09.301Z,43.43
2018-04-12T12:16:37.549Z,43.58
2018-04-12T12:19:06.566Z,42.54
2018-04-12T12:21:34.818Z,42.04
2018-04-12T12:24:03.074Z,41.48
2018-04-12T12:26:31.328Z,40.93
2018-04-12T12:28:59.581Z,38.86
2018-04-12T12:31:27.836Z,38.46
2018-04-12T12:33:56.849Z,38.23
2018-04-12T12:36:25.113Z,38.44
2018-04-12T12:38:53.365Z,40.36
2018-04-12T12:41:22.372Z,39.68
2018-04-12T12:43:51.400Z,39.15
2018-04-12T12:46:19.652Z,39.73
2018-04-12T12:48:47.908Z,39.23
2018-04-12T12:51:16.926Z,39.86
2018-04-12T12:53:45.184Z,41.25
2018-04-12T12:56:14.205Z,40.97
2018-04-12T12:58:42.464Z,39.34
2018-04-12T13:01:10.717Z,40.26
2018-04-12T13:03:39.786Z,37.51
2018-04-12T13:06:07.992Z,38.30
2018-04-12T13:08:37.004Z,39.99
2018-04-12T13:11:05.251Z,36.95
2018-04-12T13:13:33.509Z,36.36
2018-04-12T13:16:01.760Z,38.17
2018-04-12T13:18:30.009Z,38.65
2018-04-12T13:20:58.257Z,38.90
2018-04-12T13:23:27.298Z,37.54
2018-04-12T13:25:55.548Z,38.14
2018-04-12T13:28:23.801Z,39.26
2018-04-12T13:30:52.822Z,39.84
2018-04-12T13:33:21.071Z,38.86
2018-04-12T13:35:50.089Z,40.15
2018-04-12T13:38:18.336Z,40.04
2018-04-12T13:40:47.374Z,39.66
2018-04-12T13:43:15.626Z,40.12
2018-04-12T13:45:43.885Z,40.76
2018-04-12T13:48:12.898Z,40.65
2018-04-12T13:50:41.154Z,40.51
2018-04-12T13:53:10.165Z,40.40
2018-04-12T13:55:38.425Z,40.13
2018-04-12T13:58:07.448Z,40.47
2018-04-12T14:00:35.704Z,40.40
2018-04-12T14:03:03.949Z,39.61
2018-04-12T14:05:32.218Z,39.38
2018-04-12T14:08:00.460Z,40.06
2018-04-12T14:10:28.708Z,39.95
2018-04-12T14:12:56.961Z,40.19
2018-04-12T14:15:25.981Z,40.53
2018-04-12T14:17:54.233Z,40.49
2018-04-12T14:20:23.240Z,40.71
2018-04-12T14:22:51.496Z,40.29
2018-04-12T14:25:20.508Z,40.55
2018-04-12T14:27:48.760Z,39.98
2018-04-12T14:30:17.009Z,39.63
2018-04-12T14:32:45.265Z,39.68
2018-04-12T14:35:13.514Z,40.22
2018-04-12T14:37:41.772Z,41.72
2018-04-12T14:40:10.900Z,40.99
2018-04-12T14:42:39.152Z,40.32
2018-04-12T14:45:08.223Z,39.81
2018-04-12T14:47:36.434Z,39.83
2018-04-12T14:50:04.686Z,38.21
2018-04-12T14:52:33.710Z,37.22
2018-04-12T14:55:01.965Z,37.68
2018-04-12T14:57:30.991Z,38.53
2018-04-12T14:59:59.241Z,38.89
2018-04-12T15:02:27.508Z,38.41
2018-04-12T15:04:56.526Z,37.82
2018-04-12T15:07:24.780Z,38.06
2018-04-12T15:09:53.804Z,37.04
2018-04-12T15:12:22.057Z,37.23
2018-04-12T15:14:51.073Z,35.83
2018-04-12T15:17:19.323Z,35.77
2018-04-12T15:19:47.582Z,35.29
2018-04-12T15:22:16.606Z,37.08
2018-04-12T15:24:44.862Z,36.83
2018-04-12T15:27:13.879Z,36.06
2018-04-12T15:29:42.138Z,36.28
2018-04-12T15:32:10.427Z,36.53
2018-04-12T15:34:38.652Z,35.91
2018-04-12T15:37:06.906Z,34.47
2018-04-12T15:39:35.161Z,35.28
2018-04-12T15:42:03.414Z,36.22
2018-04-12T15:44:31.671Z,36.79
2018-04-12T15:47:00.681Z,36.72
2018-04-12T15:49:28.941Z,35.82
2018-04-12T15:51:57.953Z,36.47
2018-04-12T15:54:26.221Z,37.19
2018-04-12T15:56:55.236Z,35.36
2018-04-12T15:59:23.501Z,35.50
2018-04-12T16:01:51.761Z,35.49
2018-04-12T16:04:20.798Z,36.33
2018-04-12T16:06:49.045Z,37.27
2018-04-12T16:09:17.298Z,36.97
2018-04-12T16:11:46.322Z,35.34
2018-04-12T16:14:14.573Z,34.05
2018-04-12T16:16:43.597Z,34.18
2018-04-12T16:19:11.851Z,32.13
2018-04-12T16:21:40.114Z,30.53
2018-04-12T16:24:09.129Z,34.05
2018-04-12T16:26:37.389Z,34.48
2018-04-12T16:29:06.412Z,37.17
2018-04-12T16:31:34.664Z,37.25
2018-04-12T16:34:02.919Z,36.15
2018-04-12T16:36:31.179Z,36.88
2018-04-12T16:38:59.470Z,36.20
2018-04-12T16:41:27.688Z,36.84
2018-04-12T16:43:55.937Z,36.20
2018-04-12T16:46:24.964Z,35.69
2018-04-12T16:48:53.218Z,35.45
2018-04-12T16:51:21.477Z,35.98
2018-04-12T16:53:50.490Z,34.60
2018-04-12T16:56:18.755Z,34.77
2018-04-12T16:58:47.006Z,34.31
2018-04-12T17:01:15.248Z,35.06
2018-04-12T17:03:43.511Z,35.84
2018-04-12T17:06:11.759Z,37.25
2018-04-12T17:08:40.014Z,38.93
2018-04-12T17:11:09.027Z,38.81
2018-04-12T17:13:37.296Z,39.71
2018-04-12T17:16:06.305Z,40.50
2018-04-12T17:18:34.569Z,40.58
2018-04-12T17:21:03.588Z,40.00
2018-04-12T17:23:31.843Z,40.53
2018-04-12T17:26:00.101Z,40.64
2018-04-12T17:28:29.124Z,40.79
2018-04-12T17:30:57.546Z,41.11
2018-04-12T17:33:25.801Z,41.81
2018-04-12T17:35:54.050Z,41.73
2018-04-12T17:38:22.317Z,42.72
2018-04-12T17:40:50.568Z,43.67
2018-04-12T17:43:19.595Z,45.11
2018-04-12T17:45:47.840Z,47.20
2018-04-12T17:48:16.869Z,51.20
2018-04-12T17:50:45.121Z,58.74
2018-04-12T17:53:14.155Z,62.66
2018-04-12T17:55:42.410Z,63.41
2018-04-12T17:58:10.660Z,64.06
2018-04-12T18:00:39.696Z,67.21
2018-04-12T18:03:07.937Z,65.69
2018-04-12T18:05:36.200Z,65.82
2018-04-12T18:08:05.219Z,66.21
2018-04-12T18:10:33.477Z,64.91
2018-04-12T18:13:02.497Z,66.92
2018-04-12T18:15:30.770Z,65.29
2018-04-12T18:17:59.041Z,65.80
2018-04-12T18:20:27.305Z,66.79
2018-04-12T18:22:55.561Z,62.52
2018-04-12T18:25:24.593Z,64.37
2018-04-12T18:27:52.847Z,63.30
2018-04-12T18:30:21.108Z,63.29
2018-04-12T18:32:50.124Z,64.54
2018-04-12T18:35:18.380Z,64.17
2018-04-12T18:37:47.402Z,64.09
2018-04-12T18:40:15.676Z,63.99
2018-04-12T18:42:43.926Z,63.79
2018-04-12T18:45:12.947Z,64.35
2018-04-12T18:47:41.208Z,65.52
2018-04-12T18:50:09.468Z,65.58
2018-04-12T18:52:38.487Z,64.62
2018-04-12T18:55:06.740Z,65.14
2018-04-12T18:57:35.769Z,65.96
2018-04-12T19:00:04.016Z,65.00
2018-04-12T19:02:32.280Z,64.93
2018-04-12T19:05:01.288Z,67.81
2018-04-12T19:07:29.559Z,67.20
2018-04-12T19:09:58.569Z,65.45
2018-04-12T19:12:26.830Z,64.63
2018-04-12T19:14:55.844Z,64.90
2018-04-12T19:17:24.119Z,64.12
2018-04-12T19:19:52.370Z,62.93
2018-04-12T19:22:21.385Z,62.22
2018-04-12T19:24:49.640Z,61.73
2018-04-12T19:27:17.901Z,64.99
2018-04-12T19:29:46.924Z,64.14
2018-04-12T19:32:15.172Z,63.61
2018-04-12T19:34:44.193Z,63.14
2018-04-12T19:37:12.441Z,63.18
2018-04-12T19:39:41.461Z,60.78
2018-04-12T19:42:09.718Z,61.44
2018-04-12T19:44:38.742Z,61.61
2018-04-12T19:47:06.997Z,59.63
2018-04-12T19:49:35.251Z,60.03
2018-04-12T19:52:04.261Z,58.46
2018-04-12T19:54:32.521Z,57.29
2018-04-12T19:57:01.552Z,56.25
2018-04-12T19:59:29.812Z,57.76
2018-04-12T20:01:58.063Z,58.49
2018-04-12T20:04:27.319Z,58.20
2018-04-12T20:06:55.692Z,59.20
2018-04-12T20:09:24.062Z,60.18
2018-04-12T20:11:52.529Z,61.44
2018-04-12T20:14:20.869Z,62.92
2018-04-12T20:16:49.309Z,64.03
2018-04-12T20:19:17.815Z,65.06
2018-04-12T20:21:47.111Z,65.60
2018-04-12T20:24:16.552Z,65.91
2018-04-12T20:26:44.961Z,66.12
2018-04-12T20:29:13.652Z,65.48
2018-04-12T20:31:42.510Z,65.52
2018-04-12T20:34:11.100Z,66.57
2018-04-12T20:36:39.775Z,67.09
2018-04-12T20:39:08.476Z,67.48
2018-04-12T20:41:37.060Z,67.96
2018-04-12T20:44:05.664Z,67.74
2018-04-12T20:46:33.934Z,67.94
2018-04-12T20:49:02.196Z,68.64
2018-04-12T20:51:30.458Z,68.98
2018-04-12T20:53:58.710Z,68.87
2018-04-12T20:56:27.745Z,69.13
2018-04-12T20:58:56.009Z,69.03
2018-04-12T21:01:24.261Z,70.28
2018-04-12T21:03:53.293Z,70.49
2018-04-12T21:06:21.572Z,70.80
2018-04-12T21:08:49.842Z,70.32
2018-04-12T21:11:18.095Z,69.59
2018-04-12T21:13:46.357Z,69.42
2018-04-12T21:16:15.385Z,69.74
2018-04-12T21:18:43.637Z,69.31
2018-04-12T21:21:11.903Z,69.01
2018-04-12T21:23:40.939Z,68.94
2018-04-12T21:26:09.195Z,68.99
2018-04-12T21:28:37.447Z,69.60
2018-04-12T21:31:06.474Z,70.10
2018-04-12T21:33:34.724Z,70.03
2018-04-12T21:36:03.003Z,69.70
2018-04-12T21:38:32.026Z,70.74
2018-04-12T21:41:00.285Z,72.04
2018-04-12T21:43:28.537Z,72.21
2018-04-12T21:45:57.561Z,72.50
2018-04-12T21:48:25.812Z,71.32
2018-04-12T21:50:54.848Z,72.51
2018-04-12T21:53:23.102Z,72.41
2018-04-12T21:55:51.365Z,73.90
2018-04-12T21:58:19.621Z,73.22
2018-04-12T22:00:48.662Z,72.66
2018-04-12T22:03:16.911Z,73.04
2018-04-12T22:05:45.166Z,73.27
2018-04-12T22:08:14.182Z,71.79
2018-04-12T22:10:42.448Z,70.79
2018-04-12T22:13:11.469Z,69.81
2018-04-12T22:15:39.716Z,69.83
2018-04-12T22:18:07.981Z,70.52
2018-04-12T22:20:37.003Z,73.97
2018-04-12T22:23:05.261Z,75.07
2018-04-12T22:25:34.282Z,75.91
2018-04-12T22:28:02.538Z,76.13
2018-04-12T22:30:30.788Z,76.49
2018-04-12T22:32:59.821Z,75.69
2018-04-12T22:35:28.074Z,75.54
2018-04-12T22:37:57.101Z,75.33
2018-04-12T22:40:25.349Z,74.76
2018-04-12T22:42:53.633Z,74.35
2018-04-12T22:45:21.887Z,73.20
2018-04-12T22:47:50.907Z,71.35
2018-04-12T22:50:19.172Z,69.37
2018-04-12T22:52:48.187Z,69.75
2018-04-12T22:55:16.444Z,69.20
2018-04-12T22:57:44.693Z,70.73
2018-04-12T23:00:13.723Z,69.98
2018-04-12T23:05:15.566Z,71.45
2018-04-12T23:07:44.580Z,71.22
2018-04-12T23:10:12.855Z,70.32
2018-04-12T23:12:41.865Z,69.78
2018-04-12T23:15:10.129Z,70.45
2018-04-12T23:17:38.385Z,71.95
2018-04-12T23:20:07.410Z,71.46
2018-04-12T23:22:35.671Z,72.37
2018-04-12T23:25:03.922Z,73.19
2018-04-12T23:27:32.955Z,73.48
2018-04-12T23:30:01.205Z,73.41
2018-04-12T23:32:30.249Z,73.63
2018-04-12T23:34:58.500Z,73.74
2018-04-12T23:37:26.761Z,74.30
2018-04-12T23:39:55.021Z,75.27
2018-04-12T23:42:24.049Z,75.98
2018-04-12T23:44:52.303Z,76.49
2018-04-12T23:47:20.572Z,77.07
2018-04-12T23:49:49.589Z,76.36
2018-04-12T23:52:17.849Z,75.18
2018-04-12T23:54:46.103Z,72.07
2018-04-12T23:57:15.153Z,73.07
2018-04-12T23:59:43.407Z,73.93
